createdAt,value
2019-05-30T00:02:02.590Z,95987.98
2019-05-30T00:07:02.771Z,95987.09
2019-05-30T00:12:05.153Z,95997.48
2019-05-30T00:17:06.225Z,95996.25
2019-05-30T00:22:08.283Z,95996.58
2019-05-30T00:27:10.400Z,96006.38
2019-05-30T00:32:11.701Z,96000.89
2019-05-30T00:37:13.160Z,96006.87
2019-05-30T00:42:14.510Z,96001.80
2019-05-30T00:47:15.817Z,96002.30
2019-05-30T00:52:17.143Z,96004.68
2019-05-30T00:57:18.616Z,96002.30
2019-05-30T01:02:19.972Z,96002.81
2019-05-30T01:07:21.413Z,96000.23
2019-05-30T01:12:22.805Z,96000.34
2019-05-30T01:17:24.217Z,96004.16
2019-05-30T01:22:25.616Z,96001.58
2019-05-30T01:27:26.985Z,95995.37
2019-05-30T01:32:28.371Z,95995.48
2019-05-30T01:37:29.720Z,95991.73
2019-05-30T01:42:31.144Z,95989.60
2019-05-30T01:47:32.522Z,95990.09
2019-05-30T01:52:33.917Z,95992.05
2019-05-30T01:57:35.355Z,95982.23
2019-05-30T02:02:37.468Z,95985.88
2019-05-30T02:07:38.829Z,95993.05
2019-05-30T02:12:40.173Z,95993.53
2019-05-30T02:17:41.490Z,95994.05
2019-05-30T02:22:42.898Z,95998.16
2019-05-30T02:27:44.265Z,96001.56
2019-05-30T02:32:45.562Z,96005.13
2019-05-30T02:37:46.989Z,96001.30
2019-05-30T02:42:48.340Z,96003.57
2019-05-30T02:47:50.438Z,96006.77
2019-05-30T02:52:51.764Z,96010.37
2019-05-30T02:57:53.188Z,96010.73
2019-05-30T03:02:54.593Z,96005.54
2019-05-30T03:07:55.920Z,96010.57
2019-05-30T03:12:57.295Z,96015.72
2019-05-30T03:17:58.706Z,96028.64
2019-05-30T03:23:02.855Z,96024.00
2019-05-30T03:28:02.798Z,96024.61
2019-05-30T03:33:17.150Z,96032.02
2019-05-30T03:38:07.951Z,96031.31
2019-05-30T03:43:09.215Z,96032.75
2019-05-30T03:48:09.842Z,96042.54
2019-05-30T03:53:11.997Z,96041.59
2019-05-30T03:58:25.327Z,96049.67
2019-05-30T04:03:28.514Z,96050.19
2019-05-30T04:08:29.891Z,96058.41
2019-05-30T04:13:38.022Z,96064.52
2019-05-30T04:18:39.389Z,96069.27
2019-05-30T04:23:40.742Z,96071.70
2019-05-30T04:28:42.181Z,96075.06
2019-05-30T04:33:44.288Z,96082.64
2019-05-30T04:38:45.655Z,96092.64
2019-05-30T04:43:47.016Z,96093.98
2019-05-30T04:48:48.392Z,96089.56
2019-05-30T04:53:49.787Z,96089.62
2019-05-30T04:58:51.224Z,96092.72
2019-05-30T05:03:52.605Z,96096.78
2019-05-30T05:08:53.995Z,96104.42
2019-05-30T05:13:55.379Z,96109.47
2019-05-30T05:18:56.788Z,96106.03
2019-05-30T05:23:58.145Z,96112.09
2019-05-30T05:28:59.699Z,96114.55
2019-05-30T05:34:01.038Z,96110.38
2019-05-30T05:39:03.176Z,96116.91
2019-05-30T05:44:04.569Z,96113.30
2019-05-30T05:49:05.979Z,96114.69
2019-05-30T05:54:07.357Z,96128.34
2019-05-30T05:59:08.728Z,96128.23
2019-05-30T06:04:13.475Z,96127.48
2019-05-30T06:09:11.460Z,96125.28
2019-05-30T06:14:12.818Z,96134.76
2019-05-30T06:19:14.193Z,96139.73
2019-05-30T06:24:15.550Z,96138.92
2019-05-30T06:29:17.886Z,96141.46
2019-05-30T06:34:30.333Z,96143.00
2019-05-30T06:39:19.751Z,96142.36
2019-05-30T06:44:21.858Z,96138.52
2019-05-30T06:49:22.760Z,96140.51
2019-05-30T06:54:24.656Z,96144.17
2019-05-30T06:59:25.583Z,96144.06
2019-05-30T07:04:27.851Z,96150.22
2019-05-30T07:09:29.154Z,96143.17
2019-05-30T07:14:29.656Z,96150.91
2019-05-30T07:19:31.686Z,96148.33
2019-05-30T07:24:32.393Z,96156.19
2019-05-30T07:29:34.248Z,96162.72
2019-05-30T07:34:35.813Z,96168.22
2019-05-30T07:39:37.660Z,96173.95
2019-05-30T07:44:38.530Z,96169.33
2019-05-30T07:49:39.845Z,96171.87
2019-05-30T07:54:41.185Z,96172.58
2019-05-30T07:59:42.591Z,96174.97
2019-05-30T08:04:46.887Z,96176.12
2019-05-30T08:09:45.332Z,96170.66
2019-05-30T08:14:49.308Z,96164.73
2019-05-30T08:19:50.667Z,96166.91
2019-05-30T08:24:52.043Z,96175.87
2019-05-30T08:29:53.415Z,96174.21
2019-05-30T08:34:55.530Z,96177.59
2019-05-30T08:39:56.886Z,96178.92
2019-05-30T08:44:58.319Z,96180.05
2019-05-30T08:50:00.454Z,96175.52
2019-05-30T08:55:01.835Z,96177.78
2019-05-30T09:00:05.204Z,96174.27
2019-05-30T09:05:07.166Z,96174.95
2019-05-30T09:10:08.950Z,96176.39
2019-05-30T09:15:10.329Z,96173.31
2019-05-30T09:20:11.661Z,96174.55
2019-05-30T09:25:13.779Z,96170.09
2019-05-30T09:30:15.158Z,96167.02
2019-05-30T09:35:16.555Z,96164.86
2019-05-30T09:40:17.975Z,96163.00
2019-05-30T09:45:19.399Z,96162.27
2019-05-30T09:50:20.763Z,96160.25
2019-05-30T09:55:22.106Z,96164.06
2019-05-30T10:00:23.534Z,96158.15
2019-05-30T10:05:28.004Z,96157.48
2019-05-30T10:10:31.497Z,96158.87
2019-05-30T10:15:37.659Z,96154.79
2019-05-30T10:20:39.550Z,96157.95
2019-05-30T10:25:40.889Z,96156.16
2019-05-30T10:30:42.199Z,96148.31
2019-05-30T10:35:45.563Z,96150.34
2019-05-30T10:40:45.648Z,96147.55
2019-05-30T10:45:47.858Z,96144.83
2019-05-30T10:50:48.524Z,96135.12
2019-05-30T10:55:50.115Z,96131.36
2019-05-30T11:00:55.724Z,96135.08
2019-05-30T11:06:04.441Z,96128.24
2019-05-30T11:11:05.776Z,96128.89
2019-05-30T11:16:07.088Z,96114.73
2019-05-30T11:21:08.422Z,96108.70
2019-05-30T11:26:10.127Z,96103.50
2019-05-30T11:31:11.464Z,96102.70
2019-05-30T11:36:12.944Z,96104.84
2019-05-30T11:41:14.407Z,96093.25
2019-05-30T11:46:15.804Z,96097.67
2019-05-30T11:51:17.375Z,96082.23
2019-05-30T11:56:19.429Z,96087.21
2019-05-30T12:01:20.865Z,96086.36
2019-05-30T12:06:22.202Z,96086.04
2019-05-30T12:11:23.555Z,96085.24
2019-05-30T12:16:25.650Z,96083.63
2019-05-30T12:21:29.759Z,96083.80
2019-05-30T12:26:28.350Z,96079.11
2019-05-30T12:31:29.829Z,96087.97
2019-05-30T12:36:31.170Z,96083.16
2019-05-30T12:41:32.485Z,96083.81
2019-05-30T12:46:33.929Z,96073.63
2019-05-30T12:51:35.256Z,96065.83
2019-05-30T12:56:36.574Z,96074.54
2019-05-30T13:01:37.972Z,96066.67
2019-05-30T13:06:39.356Z,96052.30
2019-05-30T13:11:40.667Z,96054.46
2019-05-30T13:16:42.073Z,96041.09
2019-05-30T13:21:43.426Z,96051.50
2019-05-30T13:26:44.845Z,96058.52
2019-05-30T13:31:46.164Z,96065.14
2019-05-30T13:36:47.492Z,96053.27
2019-05-30T13:41:48.835Z,96056.48
2019-05-30T13:46:50.195Z,96054.14
2019-05-30T13:51:52.340Z,96046.03
2019-05-30T13:56:53.655Z,96045.81
2019-05-30T14:01:54.987Z,96054.54
2019-05-30T14:06:56.321Z,96049.20
2019-05-30T14:11:57.825Z,96050.56
2019-05-30T14:17:00.862Z,96037.37
2019-05-30T14:22:03.197Z,96046.19
2019-05-30T14:27:05.415Z,96045.50
2019-05-30T14:32:06.329Z,96040.59
2019-05-30T14:37:08.412Z,96042.84
2019-05-30T14:42:09.212Z,96036.88
2019-05-30T14:47:10.572Z,96048.06
2019-05-30T14:52:13.235Z,96032.08
2019-05-30T14:57:13.276Z,96049.55
2019-05-30T15:02:14.656Z,96049.16
2019-05-30T15:07:16.893Z,96058.39
2019-05-30T15:12:18.249Z,96058.20
2019-05-30T15:17:19.571Z,96060.95
2019-05-30T15:22:20.877Z,96049.41
2019-05-30T15:27:22.221Z,96044.45
2019-05-30T15:32:23.620Z,96041.69
2019-05-30T15:37:25.010Z,96040.78
2019-05-30T15:42:26.337Z,96037.77
2019-05-30T15:47:32.050Z,96041.48
2019-05-30T15:52:33.401Z,96042.32
2019-05-30T15:57:34.834Z,96034.25
2019-05-30T16:02:36.278Z,96035.84
2019-05-30T16:07:37.736Z,96034.17
2019-05-30T16:12:39.800Z,96039.25
2019-05-30T16:17:41.869Z,96034.31
2019-05-30T16:22:43.218Z,96036.11
2019-05-30T16:27:44.564Z,96038.44
2019-05-30T16:32:45.918Z,96027.48
2019-05-30T16:37:47.273Z,96025.67
2019-05-30T16:42:48.797Z,96021.08
2019-05-30T16:47:50.232Z,96031.08
2019-05-30T16:52:51.687Z,96016.42
2019-05-30T16:57:52.988Z,96023.20
2019-05-30T17:02:54.397Z,96026.09
2019-05-30T17:07:55.863Z,96030.27
2019-05-30T17:12:57.210Z,96040.54
2019-05-30T17:17:58.545Z,96042.43
2019-05-30T17:22:59.895Z,96038.90
2019-05-30T17:28:01.213Z,96038.77
2019-05-30T17:33:02.525Z,96040.48
2019-05-30T17:38:03.845Z,96037.96
2019-05-30T17:43:05.198Z,96046.42
2019-05-30T17:48:15.971Z,96043.53
2019-05-30T17:53:08.721Z,96044.06
2019-05-30T17:58:10.470Z,96046.34
2019-05-30T18:03:11.448Z,96050.45
2019-05-30T18:08:12.929Z,96051.87
2019-05-30T18:13:15.013Z,96054.00
2019-05-30T18:18:16.457Z,96051.41
2019-05-30T18:23:17.794Z,96061.09
2019-05-30T18:28:19.118Z,96063.86
2019-05-30T18:33:22.136Z,96063.34
2019-05-30T18:38:24.163Z,96062.31
2019-05-30T18:43:24.655Z,96066.40
2019-05-30T18:48:27.239Z,96064.42
2019-05-30T18:53:28.316Z,96057.00
2019-05-30T18:58:29.052Z,96071.00
2019-05-30T19:03:32.062Z,96067.55
2019-05-30T19:08:33.945Z,96070.86
2019-05-30T19:13:34.064Z,96074.77
2019-05-30T19:18:35.773Z,96075.98
2019-05-30T19:23:39.706Z,96087.94
2019-05-30T19:28:38.142Z,96087.94
2019-05-30T19:33:40.267Z,96093.09
2019-05-30T19:38:41.583Z,96101.94
2019-05-30T19:43:43.686Z,96109.78
2019-05-30T19:48:45.108Z,96108.81
2019-05-30T19:53:46.434Z,96116.45
2019-05-30T19:58:47.775Z,96115.02
2019-05-30T20:03:49.124Z,96126.13
2019-05-30T20:08:55.693Z,96121.50
2019-05-30T20:13:52.713Z,96122.73
2019-05-30T20:18:54.097Z,96135.13
2019-05-30T20:23:59.414Z,96134.48
2019-05-30T20:28:56.928Z,96138.72
2019-05-30T20:33:58.271Z,96132.30
2019-05-30T20:38:59.898Z,96143.83
2019-05-30T20:44:01.244Z,96144.17
2019-05-30T20:49:02.667Z,96152.87
2019-05-30T20:54:04.067Z,96156.62
2019-05-30T20:59:05.696Z,96150.50
2019-05-30T21:04:07.054Z,96156.00
2019-05-30T21:09:27.284Z,96156.73
2019-05-30T21:14:13.653Z,96155.75
2019-05-30T21:19:16.846Z,96156.05
2019-05-30T21:24:18.225Z,96160.97
2019-05-30T21:29:20.985Z,96153.52
2019-05-30T21:34:26.477Z,96152.09
2019-05-30T21:39:27.739Z,96157.11
2019-05-30T21:44:29.110Z,96155.50
2019-05-30T21:49:30.451Z,96152.89
2019-05-30T21:54:31.760Z,96153.56
2019-05-30T21:59:33.084Z,96149.27
2019-05-30T22:04:34.456Z,96152.22
2019-05-30T22:09:35.792Z,96157.98
2019-05-30T22:14:37.189Z,96148.80
2019-05-30T22:19:38.596Z,96148.70
2019-05-30T22:24:39.922Z,96151.95
2019-05-30T22:29:42.196Z,96150.52
2019-05-30T22:34:42.759Z,96144.25
2019-05-30T22:39:44.863Z,96147.48
2019-05-30T22:44:46.048Z,96144.35
2019-05-30T22:49:46.790Z,96145.84
2019-05-30T22:54:49.074Z,96150.88
2019-05-30T22:59:49.534Z,96139.42
2019-05-30T23:04:52.171Z,96143.45
2019-05-30T23:09:52.249Z,96145.73
2019-05-30T23:14:54.309Z,96150.35
2019-05-30T23:19:55.018Z,96149.38
2019-05-30T23:24:57.427Z,96152.40
2019-05-30T23:29:58.037Z,96146.48
2019-05-30T23:34:59.163Z,96144.17
2019-05-30T23:40:00.509Z,96136.55
2019-05-30T23:45:01.831Z,96133.91
2019-05-30T23:50:04.200Z,96136.23
2019-05-30T23:55:05.562Z,96128.33
